Time;durP1;ratioP1;P1;durP2;ratioP2;P2;SDS_P1;SDS_P2;PMS_P1;PMS_P2;Temp;Humidity;BMP_temperature;BMP_pressure;BME280_temperature;BME280_humidity;BME280_pressure;Samples;Min_cycle;Max_cycle;Signal;HPM_P1;HPM_P2
2024/04/02 00:01:29;;;;;;;2.13;0.90;;;9.00;78.10;;;;;;4999925;28;20210;-72
2024/04/02 00:04:14;;;;;;;1.80;1.00;;;9.10;78.10;;;;;;5002969;28;20838;-73
2024/04/02 00:06:40;;;;;;;1.40;1.10;;;9.00;78.10;;;;;;5011702;28;20193;-71
2024/04/02 00:09:05;;;;;;;1.67;1.00;;;9.00;78.30;;;;;;5012122;28;20428;-74
2024/04/02 00:11:31;;;;;;;2.30;1.00;;;9.00;78.30;;;;;;5004071;28;20206;-72
2024/04/02 00:13:58;;;;;;;1.80;1.10;;;9.00;78.30;;;;;;5006400;28;20556;-73
2024/04/02 00:16:23;;;;;;;1.43;0.87;;;9.00;78.10;;;;;;5015948;28;20248;-72
2024/04/02 00:18:49;;;;;;;2.40;1.10;;;9.00;78.10;;;;;;5010482;28;20543;-73
2024/04/02 00:21:15;;;;;;;1.77;1.00;;;9.00;78.10;;;;;;5006980;28;20217;-72
2024/04/02 00:23:43;;;;;;;1.27;0.80;;;9.00;78.00;;;;;;5001994;28;20548;-73
2024/04/02 00:26:09;;;;;;;1.30;1.00;;;9.00;77.80;;;;;;5001223;28;20186;-73
2024/04/02 00:28:34;;;;;;;0.97;0.80;;;8.90;77.80;;;;;;4997458;28;20439;-73
2024/04/02 00:31:02;;;;;;;1.47;0.97;;;8.90;78.00;;;;;;5004164;28;20197;-73
2024/04/02 00:33:28;;;;;;;1.70;1.13;;;8.90;77.80;;;;;;4999192;28;20205;-73
2024/04/02 00:36:05;;;;;;;3.20;1.00;;;8.90;78.00;;;;;;5008953;28;20479;-73
2024/04/02 00:38:31;;;;;;;1.10;0.80;;;8.90;78.00;;;;;;5008740;28;20451;-72
2024/04/02 00:40:57;;;;;;;1.23;0.80;;;8.90;77.80;;;;;;5009735;28;20483;-72
2024/04/02 00:43:24;;;;;;;1.50;1.10;;;8.90;78.00;;;;;;5015483;28;20436;-73
2024/04/02 00:45:49;;;;;;;1.53;0.80;;;8.90;78.10;;;;;;5016861;28;20182;-73
2024/04/02 00:48:16;;;;;;;1.73;0.97;;;8.90;78.00;;;;;;5014083;28;20934;-72
2024/04/02 00:50:42;;;;;;;2.87;1.80;;;8.90;77.80;;;;;;5006688;28;20586;-72
2024/04/02 00:53:08;;;;;;;2.40;1.30;;;8.90;78.00;;;;;;4997045;28;20449;-73
2024/04/02 00:55:37;;;;;;;4.07;1.03;;;8.90;78.00;;;;;;5013727;28;20213;-72
2024/04/02 00:58:05;;;;;;;4.10;0.90;;;8.80;78.10;;;;;;5013920;28;20464;-72
2024/04/02 01:00:31;;;;;;;1.70;0.90;;;8.90;77.80;;;;;;5012424;28;20423;-72
2024/04/02 01:02:57;;;;;;;2.00;1.00;;;8.90;77.80;;;;;;5002168;28;20510;-71
2024/04/02 01:05:23;;;;;;;1.53;0.80;;;8.90;77.60;;;;;;5010772;28;20448;-73
2024/04/02 01:07:49;;;;;;;1.20;0.80;;;8.90;77.40;;;;;;5009595;28;20673;-73
2024/04/02 01:10:15;;;;;;;3.17;0.90;;;8.90;77.40;;;;;;5012911;28;20458;-73
2024/04/02 01:12:40;;;;;;;1.30;1.00;;;8.90;77.10;;;;;;5003501;28;20854;-73
2024/04/02 01:15:06;;;;;;;1.20;0.80;;;8.90;77.30;;;;;;5011980;28;20202;-71
2024/04/02 01:17:32;;;;;;;1.10;0.80;;;8.90;77.30;;;;;;5003134;28;20332;-73
2024/04/02 01:19:57;;;;;;;4.60;1.00;;;8.80;77.30;;;;;;5010556;28;20174;-73
2024/04/02 01:22:23;;;;;;;2.07;0.90;;;8.80;77.30;;;;;;5008977;28;20626;-72
2024/04/02 01:24:59;;;;;;;1.70;0.93;;;8.80;77.30;;;;;;5010362;28;20202;-72
2024/04/02 01:27:26;;;;;;;1.23;0.90;;;8.80;77.10;;;;;;5011424;28;20341;-72
2024/04/02 01:29:52;;;;;;;4.17;1.20;;;8.80;77.10;;;;;;5015751;28;20468;-72
2024/04/02 01:32:18;;;;;;;1.90;1.00;;;8.80;77.00;;;;;;5008604;28;21156;-74
2024/04/02 01:34:43;;;;;;;1.27;1.00;;;8.80;77.00;;;;;;5011763;28;20428;-73
2024/04/02 01:37:09;;;;;;;1.40;0.93;;;8.80;77.00;;;;;;5007629;28;20228;-73
2024/04/02 01:39:35;;;;;;;2.13;0.97;;;8.80;77.10;;;;;;5010056;28;20315;-74
2024/04/02 01:42:00;;;;;;;2.80;1.20;;;8.80;77.10;;;;;;5000299;28;20206;-70
2024/04/02 01:44:26;;;;;;;1.73;1.13;;;8.80;77.10;;;;;;5009977;28;20732;-73
2024/04/02 01:46:51;;;;;;;1.20;0.90;;;8.80;77.10;;;;;;5008496;28;20186;-72
2024/04/02 01:49:17;;;;;;;1.00;0.67;;;8.80;77.10;;;;;;5010010;28;20661;-72
2024/04/02 01:51:44;;;;;;;1.73;1.10;;;8.80;77.10;;;;;;5005006;28;20216;-73
2024/04/02 01:54:09;;;;;;;2.90;0.90;;;8.80;77.10;;;;;;5011372;28;20178;-72
2024/04/02 01:56:35;;;;;;;1.20;0.90;;;8.80;77.00;;;;;;5020361;28;20476;-72
2024/04/02 01:59:00;;;;;;;2.50;1.10;;;8.80;77.10;;;;;;5015333;28;20216;-72
2024/04/02 02:01:26;;;;;;;2.80;0.90;;;8.80;77.00;;;;;;5016746;28;20205;-72
2024/04/02 02:03:52;;;;;;;1.73;0.83;;;8.90;76.70;;;;;;5007066;28;20277;-73
2024/04/02 02:06:17;;;;;;;4.30;1.07;;;8.90;76.70;;;;;;5009619;28;20313;-72
2024/04/02 02:08:43;;;;;;;1.17;0.90;;;8.90;76.50;;;;;;5010123;28;20597;-73
2024/04/02 02:11:09;;;;;;;2.37;0.80;;;8.90;76.50;;;;;;5006091;28;20209;-73
2024/04/02 02:13:36;;;;;;;2.13;0.87;;;8.90;76.70;;;;;;5004796;28;20225;-73
2024/04/02 02:16:02;;;;;;;0.90;0.80;;;8.80;76.70;;;;;;5004421;28;20464;-72
2024/04/02 02:18:31;;;;;;;1.60;0.93;;;8.80;77.00;;;;;;5011516;28;20445;-73
2024/04/02 02:20:58;;;;;;;1.60;1.30;;;8.80;77.10;;;;;;5006352;28;20457;-71
2024/04/02 02:23:24;;;;;;;4.53;1.30;;;8.70;77.10;;;;;;5000274;28;20429;-71
2024/04/02 02:25:52;;;;;;;1.17;0.90;;;8.70;77.30;;;;;;5003609;28;20432;-73
2024/04/02 02:28:18;;;;;;;0.97;0.83;;;8.70;77.30;;;;;;5004142;28;20517;-72
2024/04/02 02:30:44;;;;;;;1.60;0.90;;;8.70;77.30;;;;;;5006593;28;20983;-73
2024/04/02 02:33:10;;;;;;;1.97;1.00;;;8.70;77.40;;;;;;4998815;28;20432;-71
2024/04/02 02:35:36;;;;;;;1.40;1.10;;;8.70;77.60;;;;;;5009081;28;20557;-75
2024/04/02 02:38:02;;;;;;;2.30;0.93;;;8.60;77.80;;;;;;5014978;28;20182;-72
2024/04/02 02:40:31;;;;;;;1.50;0.87;;;8.60;78.00;;;;;;5018792;28;20488;-72
2024/04/02 02:42:58;;;;;;;1.73;1.10;;;8.60;78.00;;;;;;5006869;28;20797;-72
2024/04/02 02:45:24;;;;;;;1.67;1.00;;;8.60;78.10;;;;;;5009275;28;20432;-73
2024/04/02 02:47:50;;;;;;;1.10;0.80;;;8.60;78.10;;;;;;5010348;28;20424;-72
2024/04/02 02:50:16;;;;;;;2.90;1.07;;;8.60;78.10;;;;;;5007250;28;20422;-71
2024/04/02 02:52:43;;;;;;;2.33;1.00;;;8.60;78.10;;;;;;5005151;28;20532;-72
2024/04/02 02:55:09;;;;;;;1.20;1.00;;;8.60;78.30;;;;;;5014446;28;20664;-73
2024/04/02 02:57:34;;;;;;;2.50;1.27;;;8.60;78.30;;;;;;5012688;28;20433;-71
2024/04/02 03:00:00;;;;;;;1.57;0.90;;;8.60;78.30;;;;;;5016924;28;20620;-71
2024/04/02 03:02:25;;;;;;;1.97;0.90;;;8.60;78.30;;;;;;5014024;28;20581;-70
2024/04/02 03:04:51;;;;;;;1.63;1.00;;;8.60;78.10;;;;;;5009763;28;20215;-72
2024/04/02 03:07:17;;;;;;;1.30;0.87;;;8.60;78.00;;;;;;5011393;28;20729;-72
2024/04/02 03:09:43;;;;;;;1.50;0.80;;;8.60;78.10;;;;;;5012267;28;20713;-72
2024/04/02 03:12:10;;;;;;;1.87;1.20;;;8.60;77.80;;;;;;5005173;28;20259;-73
2024/04/02 03:14:35;;;;;;;1.57;1.10;;;8.50;78.00;;;;;;5000670;28;20469;-72
2024/04/02 03:17:01;;;;;;;2.67;1.00;;;8.60;78.00;;;;;;5007986;28;20484;-73
2024/04/02 03:19:30;;;;;;;2.20;0.90;;;8.60;77.80;;;;;;5012274;28;20182;-73
2024/04/02 03:21:55;;;;;;;1.00;0.70;;;8.60;77.60;;;;;;5009123;28;20218;-73
2024/04/02 03:24:21;;;;;;;2.30;1.10;;;8.60;77.70;;;;;;5007581;28;20438;-72
2024/04/02 03:26:47;;;;;;;1.60;0.90;;;8.60;77.30;;;;;;5003839;28;20182;-74
2024/04/02 03:29:12;;;;;;;2.23;0.93;;;8.60;77.30;;;;;;5009391;28;20705;-71
2024/04/02 03:31:38;;;;;;;3.47;1.10;;;8.60;77.10;;;;;;5009494;28;20198;-73
2024/04/02 03:34:04;;;;;;;2.27;0.97;;;8.60;77.30;;;;;;5020997;28;20185;-71
2024/04/02 03:36:29;;;;;;;2.27;0.77;;;8.60;77.10;;;;;;5006737;28;20664;-72
2024/04/02 03:38:56;;;;;;;1.77;0.80;;;8.70;77.00;;;;;;5008556;28;20609;-73
2024/04/02 03:41:21;;;;;;;1.83;1.20;;;8.60;77.00;;;;;;5010636;28;20198;-72
2024/04/02 03:43:48;;;;;;;1.10;0.90;;;8.60;77.00;;;;;;5019488;28;20441;-72
2024/04/02 03:46:14;;;;;;;1.43;0.80;;;8.60;77.10;;;;;;5018368;28;20241;-71
2024/04/02 03:48:39;;;;;;;2.03;0.90;;;8.60;77.30;;;;;;5020272;28;20425;-71
2024/04/02 03:51:05;;;;;;;0.70;0.60;;;8.50;77.30;;;;;;5017208;28;20653;-70
2024/04/02 03:53:31;;;;;;;1.10;0.90;;;8.50;77.30;;;;;;5026466;28;20265;-73
2024/04/02 03:55:57;;;;;;;1.00;0.77;;;8.60;77.30;;;;;;5014021;28;20240;-72
2024/04/02 03:58:24;;;;;;;1.00;0.80;;;8.60;77.10;;;;;;5008625;28;20693;-73
2024/04/02 04:00:50;;;;;;;1.10;0.80;;;8.50;77.10;;;;;;5003083;28;20432;-71
2024/04/02 04:03:17;;;;;;;1.33;1.00;;;8.60;77.10;;;;;;5010572;28;20436;-70
2024/04/02 04:05:43;;;;;;;1.40;0.80;;;8.60;77.00;;;;;;5009426;28;20421;-73
2024/04/02 04:08:09;;;;;;;1.67;1.03;;;8.60;76.80;;;;;;5011346;28;20896;-72
2024/04/02 04:10:36;;;;;;;1.20;0.80;;;8.60;77.00;;;;;;5015399;28;20443;-72
2024/04/02 04:13:01;;;;;;;1.60;1.03;;;8.60;77.00;;;;;;5005909;28;20271;-74
2024/04/02 04:15:27;;;;;;;1.67;1.00;;;8.60;76.80;;;;;;5004673;28;20552;-72
2024/04/02 04:17:53;;;;;;;1.40;0.70;;;8.60;76.80;;;;;;5005834;28;20239;-73
2024/04/02 04:20:18;;;;;;;2.30;0.70;;;8.60;76.50;;;;;;5005250;28;20676;-73
2024/04/02 04:22:44;;;;;;;1.00;0.60;;;8.60;76.40;;;;;;5000681;28;20205;-73
2024/04/02 04:25:09;;;;;;;1.80;0.80;;;8.60;76.40;;;;;;5006496;28;20185;-74
2024/04/02 04:27:38;;;;;;;2.70;1.03;;;8.60;76.40;;;;;;5009414;28;20202;-73
2024/04/02 04:30:05;;;;;;;1.80;0.80;;;8.60;76.40;;;;;;5006557;28;20194;-73
2024/04/02 04:32:31;;;;;;;2.00;0.80;;;8.70;76.40;;;;;;5001491;28;20514;-74
2024/04/02 04:34:58;;;;;;;0.90;0.77;;;8.70;76.20;;;;;;5004497;28;20448;-72
2024/04/02 04:37:24;;;;;;;2.40;1.00;;;8.70;76.40;;;;;;5004756;28;20420;-73
2024/04/02 04:39:50;;;;;;;0.80;0.70;;;8.60;76.50;;;;;;5006846;28;20460;-74
2024/04/02 04:42:15;;;;;;;0.90;0.70;;;8.60;76.40;;;;;;5007637;28;20459;-74
2024/04/02 04:44:44;;;;;;;1.60;1.07;;;8.60;76.50;;;;;;5011425;28;20177;-74
2024/04/02 04:47:12;;;;;;;1.57;0.83;;;8.60;76.70;;;;;;5009257;28;20194;-73
2024/04/02 04:49:40;;;;;;;1.93;1.00;;;8.60;76.80;;;;;;5013746;28;20421;-74
2024/04/02 04:52:06;;;;;;;1.00;0.60;;;8.50;76.80;;;;;;5006411;28;20508;-73
2024/04/02 04:54:32;;;;;;;1.97;0.90;;;8.50;77.00;;;;;;5012026;28;20436;-74
2024/04/02 04:56:58;;;;;;;1.37;0.90;;;8.50;77.10;;;;;;5007072;28;20484;-73
2024/04/02 04:59:23;;;;;;;2.00;1.10;;;8.50;77.30;;;;;;5007492;28;20192;-72
2024/04/02 05:01:49;;;;;;;1.30;0.80;;;8.50;77.10;;;;;;5005358;28;20201;-73
2024/04/02 05:04:14;;;;;;;1.63;0.90;;;8.50;77.00;;;;;;5009264;28;20614;-74
2024/04/02 05:06:42;;;;;;;2.00;0.90;;;8.50;77.00;;;;;;5007260;28;20178;-73
2024/04/02 05:09:11;;;;;;;0.90;0.60;;;8.50;77.00;;;;;;5006258;28;20190;-73
2024/04/02 05:11:40;;;;;;;1.83;0.77;;;8.50;76.80;;;;;;5003454;28;20457;-73
2024/04/02 05:14:06;;;;;;;1.77;0.97;;;8.60;76.50;;;;;;5003036;28;20452;-73
2024/04/02 05:16:34;;;;;;;1.70;0.90;;;8.60;76.40;;;;;;5003769;28;20519;-74
2024/04/02 05:19:03;;;;;;;2.00;0.90;;;8.60;76.20;;;;;;5001174;28;20922;-73
2024/04/02 05:21:29;;;;;;;1.70;0.90;;;8.70;76.20;;;;;;4999029;28;20469;-73
2024/04/02 05:23:54;;;;;;;1.40;0.87;;;8.70;75.90;;;;;;5010650;28;20409;-73
2024/04/02 05:26:20;;;;;;;1.13;0.80;;;8.70;76.10;;;;;;5011162;28;20562;-72
2024/04/02 05:28:45;;;;;;;2.87;1.27;;;8.70;76.20;;;;;;5013024;28;20185;-72
2024/04/02 05:31:15;;;;;;;1.17;0.97;;;8.70;75.90;;;;;;5015260;28;20213;-74
2024/04/02 05:33:42;;;;;;;1.00;0.73;;;8.70;75.80;;;;;;5010257;28;20186;-73
2024/04/02 05:36:07;;;;;;;1.50;1.00;;;8.70;75.80;;;;;;5010676;28;20494;-72
2024/04/02 05:38:33;;;;;;;1.60;0.80;;;8.80;75.80;;;;;;5012925;28;20472;-73
2024/04/02 05:40:59;;;;;;;2.20;0.97;;;8.80;75.70;;;;;;5008827;28;20206;-72
2024/04/02 05:43:26;;;;;;;2.00;0.90;;;8.90;75.70;;;;;;5009745;28;20189;-71
2024/04/02 05:45:53;;;;;;;1.60;0.90;;;8.90;75.70;;;;;;5013998;28;20542;-74
2024/04/02 05:48:19;;;;;;;3.03;0.90;;;8.90;75.50;;;;;;5011324;28;20453;-73
2024/04/02 05:50:53;;;;;;;1.13;0.70;;;8.90;75.70;;;;;;5013506;28;20193;-73
2024/04/02 05:53:19;;;;;;;1.00;0.80;;;8.90;75.50;;;;;;5018977;28;20197;-72
2024/04/02 05:55:44;;;;;;;1.63;1.10;;;8.90;75.80;;;;;;5015631;28;20923;-73
2024/04/02 05:58:10;;;;;;;2.30;0.80;;;8.80;75.80;;;;;;5020664;28;20185;-72
2024/04/02 06:00:36;;;;;;;1.23;0.80;;;8.80;75.90;;;;;;5012868;28;20416;-73
2024/04/02 06:03:03;;;;;;;2.53;1.00;;;8.80;75.90;;;;;;5012940;28;20213;-72
2024/04/02 06:05:28;;;;;;;4.73;1.30;;;8.80;76.20;;;;;;5015523;28;20205;-72
2024/04/02 06:07:57;;;;;;;1.30;1.00;;;8.80;76.40;;;;;;5013690;28;20464;-73
2024/04/02 06:10:23;;;;;;;1.37;0.80;;;8.80;76.70;;;;;;5011332;28;20201;-73
2024/04/02 06:12:48;;;;;;;1.93;1.00;;;8.80;76.80;;;;;;5015929;28;20472;-73
2024/04/02 06:15:14;;;;;;;1.93;0.83;;;8.80;76.80;;;;;;5015720;28;20445;-74
2024/04/02 06:17:40;;;;;;;1.77;1.20;;;8.90;77.00;;;;;;5018752;28;20248;-73
2024/04/02 06:20:06;;;;;;;1.77;0.90;;;9.40;76.20;;;;;;5017155;28;20350;-73
2024/04/02 06:22:32;;;;;;;1.30;0.80;;;10.00;74.00;;;;;;5012205;28;20305;-74
2024/04/02 06:24:59;;;;;;;1.50;0.80;;;10.10;72.60;;;;;;5009983;28;20433;-74
2024/04/02 06:27:25;;;;;;;1.77;1.10;;;9.90;73.00;;;;;;5013971;28;20507;-75
2024/04/02 06:29:52;;;;;;;1.77;0.80;;;9.80;73.50;;;;;;5015411;28;20449;-76
2024/04/02 06:32:18;;;;;;;1.60;0.90;;;9.60;74.30;;;;;;5020083;28;20210;-76
2024/04/02 06:34:44;;;;;;;1.63;0.80;;;9.40;75.10;;;;;;5016067;28;20434;-76
2024/04/02 06:37:10;;;;;;;2.73;0.90;;;9.30;75.80;;;;;;5009432;28;20541;-75
2024/04/02 06:39:35;;;;;;;3.87;1.00;;;9.30;75.70;;;;;;5017025;28;20659;-74
2024/04/02 06:42:01;;;;;;;1.27;0.80;;;9.30;75.90;;;;;;5013508;28;20194;-75
2024/04/02 06:44:26;;;;;;;2.00;0.90;;;9.30;76.20;;;;;;5011617;28;20582;-75
2024/04/02 06:46:52;;;;;;;1.40;0.87;;;9.30;76.50;;;;;;5012930;28;20210;-73
2024/04/02 06:49:18;;;;;;;2.50;0.73;;;9.30;77.10;;;;;;5013482;28;20562;-74
2024/04/02 06:51:43;;;;;;;1.40;0.77;;;9.20;77.60;;;;;;5006603;28;20214;-73
2024/04/02 06:54:09;;;;;;;1.00;0.67;;;9.20;78.30;;;;;;5007546;28;20559;-76
2024/04/02 06:56:35;;;;;;;0.80;0.60;;;9.20;78.60;;;;;;5010285;28;20205;-74
2024/04/02 06:59:01;;;;;;;0.90;0.60;;;9.10;78.40;;;;;;5010607;28;20240;-74
2024/04/02 07:01:27;;;;;;;1.40;0.60;;;9.10;78.70;;;;;;5007272;28;20233;-75
2024/04/02 07:03:53;;;;;;;0.70;0.50;;;9.00;78.70;;;;;;5011426;28;20425;-76
2024/04/02 07:06:19;;;;;;;1.20;0.70;;;8.90;79.00;;;;;;5014770;28;20186;-73
2024/04/02 07:08:47;;;;;;;1.50;0.90;;;8.90;78.70;;;;;;5014394;28;20587;-74
2024/04/02 07:11:15;;;;;;;1.93;0.70;;;8.90;79.00;;;;;;5012263;28;20210;-73
2024/04/02 07:13:41;;;;;;;2.97;0.73;;;8.90;79.30;;;;;;5011467;28;20428;-74
2024/04/02 07:16:06;;;;;;;1.50;0.87;;;8.90;79.30;;;;;;5010393;28;20476;-73
2024/04/02 07:18:35;;;;;;;3.43;1.00;;;8.90;79.00;;;;;;5007086;28;20467;-72
2024/04/02 07:21:03;;;;;;;1.63;0.60;;;9.00;79.20;;;;;;5008083;28;20218;-73
2024/04/02 07:23:29;;;;;;;0.77;0.60;;;9.00;79.00;;;;;;5009970;28;20424;-74
2024/04/02 07:25:54;;;;;;;0.97;0.60;;;9.00;78.60;;;;;;5003900;28;20437;-74
2024/04/02 07:28:21;;;;;;;1.20;0.77;;;9.10;78.30;;;;;;5013636;28;20201;-74
2024/04/02 07:30:47;;;;;;;3.00;0.90;;;9.20;78.30;;;;;;5010172;28;20210;-72
2024/04/02 07:33:13;;;;;;;2.23;0.97;;;9.30;77.70;;;;;;5015333;28;20444;-72
2024/04/02 07:35:39;;;;;;;1.30;0.80;;;9.40;77.30;;;;;;5018774;28;20662;-74
2024/04/02 07:38:05;;;;;;;2.57;1.03;;;9.50;76.80;;;;;;5021328;28;20464;-74
2024/04/02 07:40:31;;;;;;;2.60;0.90;;;9.60;76.50;;;;;;5022335;28;20193;-72
2024/04/02 07:42:58;;;;;;;1.70;0.87;;;9.60;75.90;;;;;;5014629;28;20237;-73
2024/04/02 07:45:24;;;;;;;2.03;0.90;;;9.60;75.80;;;;;;5007922;28;20636;-74
2024/04/02 07:47:50;;;;;;;2.00;1.03;;;9.60;75.70;;;;;;5004220;28;20437;-74
2024/04/02 07:50:16;;;;;;;2.00;0.80;;;9.60;74.90;;;;;;5004525;28;20524;-73
2024/04/02 07:52:42;;;;;;;2.33;1.00;;;9.70;74.80;;;;;;5005820;28;20201;-73
2024/04/02 07:55:08;;;;;;;2.50;0.93;;;9.70;73.90;;;;;;5011376;28;20425;-74
2024/04/02 07:57:33;;;;;;;5.07;1.10;;;9.70;73.20;;;;;;5010684;28;20186;-73
2024/04/02 07:59:59;;;;;;;5.53;1.17;;;9.80;73.30;;;;;;5008036;28;20186;-72
2024/04/02 08:02:24;;;;;;;1.33;1.00;;;9.90;72.70;;;;;;5017224;28;20208;-73
2024/04/02 08:04:52;;;;;;;2.87;1.00;;;10.10;71.80;;;;;;5025654;28;20186;-73
2024/04/02 08:07:18;;;;;;;4.07;0.93;;;10.10;71.30;;;;;;5021403;28;20189;-72
2024/04/02 08:09:44;;;;;;;2.87;0.87;;;10.30;70.80;;;;;;5022456;28;20425;-74
2024/04/02 08:12:10;;;;;;;5.50;1.47;;;10.40;69.70;;;;;;5009732;28;20966;-73
2024/04/02 08:14:36;;;;;;;4.23;1.23;;;10.40;69.70;;;;;;5008490;28;20420;-74
2024/04/02 08:17:04;;;;;;;8.53;1.10;;;10.50;69.50;;;;;;5005991;28;20210;-73
2024/04/02 08:19:29;;;;;;;2.20;1.03;;;10.50;69.50;;;;;;5005690;28;20421;-73
2024/04/02 08:21:55;;;;;;;2.23;0.90;;;10.60;69.20;;;;;;5009022;28;20483;-74
2024/04/02 08:24:22;;;;;;;10.70;2.87;;;10.60;69.20;;;;;;5009135;28;20217;-72
2024/04/02 08:26:47;;;;;;;6.37;1.33;;;10.80;68.60;;;;;;5014417;28;20197;-74
2024/04/02 08:29:13;;;;;;;6.87;1.33;;;10.80;68.00;;;;;;5011724;28;20433;-71
2024/04/02 08:31:40;;;;;;;1.80;0.90;;;10.90;67.50;;;;;;5012612;28;20269;-73
2024/04/02 08:34:06;;;;;;;3.30;1.00;;;10.80;67.60;;;;;;5017852;28;20421;-74
2024/04/02 08:36:33;;;;;;;2.43;1.20;;;10.70;68.60;;;;;;5012564;28;20487;-73
2024/04/02 08:38:58;;;;;;;1.97;1.10;;;10.70;68.30;;;;;;5012346;28;20197;-73
2024/04/02 08:41:27;;;;;;;1.43;0.60;;;10.80;67.90;;;;;;5005459;28;20461;-73
2024/04/02 08:43:58;;;;;;;13.50;1.47;;;10.80;67.50;;;;;;5011853;28;20488;-74
2024/04/02 08:46:27;;;;;;;2.30;0.90;;;10.80;67.30;;;;;;5009648;28;20586;-72
2024/04/02 08:48:55;;;;;;;2.50;1.00;;;10.90;67.00;;;;;;5003425;28;20460;-73
2024/04/02 08:51:20;;;;;;;2.57;1.10;;;10.90;67.20;;;;;;5005175;28;20467;-74
2024/04/02 08:53:46;;;;;;;2.43;1.20;;;10.90;67.00;;;;;;5010638;28;20790;-73
2024/04/02 08:56:15;;;;;;;5.60;0.83;;;10.90;67.20;;;;;;5015427;28;20198;-73
2024/04/02 08:58:45;;;;;;;2.93;1.27;;;11.00;67.00;;;;;;5012218;28;20198;-73
2024/04/02 09:01:13;;;;;;;5.50;1.10;;;11.00;67.30;;;;;;5014516;28;20465;-70
2024/04/02 09:03:38;;;;;;;5.43;1.23;;;10.90;67.00;;;;;;5017193;28;20441;-71
2024/04/02 09:06:04;;;;;;;4.20;1.37;;;10.80;67.20;;;;;;5022248;28;20800;-72
2024/04/02 09:08:30;;;;;;;2.13;1.10;;;10.80;67.30;;;;;;5008785;28;20629;-73
2024/04/02 09:10:56;;;;;;;4.43;1.40;;;10.80;67.20;;;;;;5011391;28;20182;-71
2024/04/02 09:13:21;;;;;;;3.63;0.93;;;10.70;67.30;;;;;;5008222;28;20535;-71
2024/04/02 09:15:47;;;;;;;4.30;1.07;;;10.80;67.50;;;;;;5010735;28;20210;-71
2024/04/02 09:18:16;;;;;;;2.43;1.00;;;11.00;66.70;;;;;;5012426;28;20194;-72
2024/04/02 09:20:42;;;;;;;0.83;0.60;;;11.00;65.70;;;;;;5007776;28;20527;-71
2024/04/02 09:23:08;;;;;;;7.90;1.17;;;11.10;65.70;;;;;;5004707;28;21134;-74
2024/04/02 09:25:34;;;;;;;5.43;1.10;;;11.20;65.60;;;;;;5008937;28;20248;-73
2024/04/02 09:28:00;;;;;;;2.33;0.97;;;11.30;65.60;;;;;;5005813;28;20425;-72
2024/04/02 09:30:26;;;;;;;3.90;1.20;;;11.50;65.60;;;;;;5010887;28;20253;-73
2024/04/02 09:32:53;;;;;;;4.03;1.10;;;11.60;65.40;;;;;;5009845;28;20201;-73
2024/04/02 09:35:54;;;;;;;1.93;0.87;;;11.70;65.00;;;;;;5013480;28;20466;-72
2024/04/02 09:38:21;;;;;;;2.13;0.87;;;11.50;65.00;;;;;;5011208;28;20957;-73
2024/04/02 09:40:49;;;;;;;2.60;1.00;;;11.50;65.00;;;;;;5010178;28;20413;-73
2024/04/02 09:43:16;;;;;;;2.50;1.10;;;11.40;64.80;;;;;;5014941;28;20444;-73
2024/04/02 09:45:42;;;;;;;2.27;1.00;;;11.50;65.10;;;;;;5014205;28;20806;-72
2024/04/02 09:48:10;;;;;;;3.23;1.30;;;11.70;64.70;;;;;;5010032;28;20457;-73
2024/04/02 09:50:37;;;;;;;3.90;1.07;;;11.60;64.70;;;;;;5012363;28;20917;-73
2024/04/02 09:53:04;;;;;;;2.73;0.90;;;11.60;65.00;;;;;;5017269;28;20984;-74
2024/04/02 09:55:33;;;;;;;6.53;1.03;;;11.80;64.40;;;;;;5020046;28;20473;-73
2024/04/02 09:57:59;;;;;;;4.10;1.10;;;12.00;64.20;;;;;;5019679;28;20439;-73
2024/04/02 10:00:25;;;;;;;3.50;1.50;;;12.00;63.90;;;;;;5013213;28;20535;-74
2024/04/02 10:02:51;;;;;;;1.50;1.00;;;11.80;63.90;;;;;;5009078;28;20459;-72
2024/04/02 10:05:21;;;;;;;2.77;1.30;;;12.00;64.20;;;;;;5010603;28;20477;-74
2024/04/02 10:07:50;;;;;;;2.43;1.43;;;12.20;63.90;;;;;;5014119;28;20711;-73
2024/04/02 10:10:16;;;;;;;3.47;1.13;;;12.40;63.40;;;;;;5011738;28;20925;-72
2024/04/02 10:12:42;;;;;;;2.33;1.00;;;12.40;63.20;;;;;;5011627;28;20448;-73
2024/04/02 10:15:12;;;;;;;2.80;1.10;;;12.50;62.00;;;;;;5015675;28;20413;-72
2024/04/02 10:17:38;;;;;;;2.80;1.10;;;12.60;62.20;;;;;;5019369;28;20428;-72
2024/04/02 10:20:17;;;;;;;3.00;0.90;;;12.90;62.20;;;;;;5016826;28;20459;-72
2024/04/02 10:22:43;;;;;;;4.93;1.00;;;13.00;60.70;;;;;;5018255;28;20531;-72
2024/04/02 10:25:10;;;;;;;1.20;0.80;;;12.80;60.70;;;;;;5019355;28;20453;-73
2024/04/02 10:27:36;;;;;;;4.87;1.13;;;12.70;61.20;;;;;;5021138;28;20461;-72
2024/04/02 10:30:13;;;;;;;2.50;1.67;;;12.90;61.00;;;;;;5021602;28;20456;-75
2024/04/02 10:32:41;;;;;;;2.83;1.20;;;12.90;60.60;;;;;;5019464;28;20532;-73
2024/04/02 10:35:16;;;;;;;2.00;1.00;;;12.90;61.00;;;;;;5020587;28;20941;-72
2024/04/02 10:37:41;;;;;;;2.93;1.20;;;12.90;61.20;;;;;;5018155;28;20513;-74
2024/04/02 10:40:07;;;;;;;2.50;1.10;;;12.90;60.60;;;;;;5016466;28;20449;-74
2024/04/02 10:42:33;;;;;;;4.77;1.20;;;12.90;60.70;;;;;;5009891;28;20301;-74
2024/04/02 10:45:01;;;;;;;7.10;3.23;;;13.00;60.40;;;;;;5015602;28;20195;-75
2024/04/02 10:47:28;;;;;;;3.90;1.20;;;13.10;60.60;;;;;;5020434;28;20417;-71
2024/04/02 10:49:54;;;;;;;6.10;1.03;;;12.90;60.30;;;;;;5015279;28;20443;-73
2024/04/02 10:52:20;;;;;;;4.50;1.43;;;12.50;62.20;;;;;;4999565;28;20461;-72
2024/04/02 10:54:45;;;;;;;2.97;0.60;;;12.60;63.70;;;;;;5007625;28;20444;-73
2024/04/02 10:57:11;;;;;;;1.47;0.90;;;12.60;63.70;;;;;;5007748;28;20249;-73
2024/04/02 10:59:37;;;;;;;2.07;1.00;;;12.40;64.20;;;;;;5008283;28;20650;-73
2024/04/02 11:02:11;;;;;;;1.93;0.90;;;12.40;64.20;;;;;;5011679;28;20206;-73
2024/04/02 11:04:36;;;;;;;2.90;1.10;;;12.70;62.90;;;;;;5006028;28;20195;-71
2024/04/02 11:07:02;;;;;;;5.30;1.73;;;12.90;63.10;;;;;;5003478;28;21086;-74
2024/04/02 11:09:28;;;;;;;5.90;1.10;;;12.90;63.40;;;;;;5007740;28;20682;-71
2024/04/02 11:11:57;;;;;;;3.93;1.43;;;13.10;63.70;;;;;;5003979;28;20217;-74
2024/04/02 11:14:22;;;;;;;1.83;0.97;;;13.40;63.50;;;;;;5005053;28;20273;-73
2024/04/02 11:16:50;;;;;;;7.90;1.67;;;14.00;62.80;;;;;;5001290;28;20573;-72
2024/04/02 11:19:16;;;;;;;5.43;1.30;;;14.30;61.60;;;;;;5004536;28;20190;-73
2024/04/02 11:21:41;;;;;;;5.23;1.30;;;14.40;60.40;;;;;;5005877;28;20850;-74
2024/04/02 11:27:01;;;;;;;1.70;0.97;;;12.50;66.00;;;;;;5010609;28;20258;-74
2024/04/02 11:29:26;;;;;;;4.63;1.80;;;12.00;66.30;;;;;;5007420;28;20524;-72
2024/04/02 11:31:52;;;;;;;2.70;1.10;;;11.90;66.70;;;;;;5002003;28;20604;-74
2024/04/02 11:34:19;;;;;;;6.17;1.20;;;11.80;66.60;;;;;;5006738;28;20202;-72
2024/04/02 11:36:44;;;;;;;2.30;1.17;;;12.10;66.90;;;;;;5000651;28;20233;-71
2024/04/02 11:39:10;;;;;;;3.70;1.43;;;12.40;66.00;;;;;;5012613;28;20433;-73
2024/04/02 11:41:38;;;;;;;6.13;1.00;;;12.60;66.00;;;;;;5008182;28;20210;-74
2024/04/02 11:44:05;;;;;;;1.40;0.87;;;13.00;64.70;;;;;;5011261;28;20232;-73
2024/04/02 11:46:31;;;;;;;2.43;0.80;;;13.10;62.80;;;;;;5012518;28;20448;-74
2024/04/02 11:48:56;;;;;;;1.57;0.90;;;13.10;62.60;;;;;;5014923;28;20453;-73
2024/04/02 11:51:22;;;;;;;2.47;0.80;;;13.40;62.20;;;;;;5011092;28;20210;-72
2024/04/02 11:53:47;;;;;;;1.60;0.90;;;13.40;62.20;;;;;;5003468;28;20205;-72
2024/04/02 11:56:13;;;;;;;1.80;0.70;;;13.60;62.30;;;;;;5010758;28;20209;-72
2024/04/02 12:01:23;;;;;;;1.60;0.87;;;13.70;62.00;;;;;;5012096;28;20613;-74
2024/04/02 12:03:48;;;;;;;4.00;1.10;;;13.10;61.20;;;;;;5004713;28;20437;-72
2024/04/02 12:06:14;;;;;;;3.47;1.27;;;13.10;61.70;;;;;;5006811;28;20205;-75
2024/04/02 12:08:44;;;;;;;2.50;1.07;;;13.50;62.60;;;;;;5006559;28;20217;-72
2024/04/02 12:11:10;;;;;;;3.10;1.50;;;13.80;61.60;;;;;;5013552;28;20476;-74
2024/04/02 12:13:35;;;;;;;3.80;1.00;;;13.70;61.70;;;;;;5011335;28;20438;-73
2024/04/02 12:16:03;;;;;;;2.33;0.80;;;13.90;61.50;;;;;;5009780;28;20194;-74
2024/04/02 12:18:28;;;;;;;1.70;0.77;;;13.90;60.60;;;;;;5009991;28;20457;-73
2024/04/02 12:20:54;;;;;;;1.87;1.00;;;14.10;60.40;;;;;;5009714;28;20547;-73
2024/04/02 12:23:20;;;;;;;3.33;1.10;;;14.10;59.90;;;;;;5002490;28;20197;-75
2024/04/02 12:25:45;;;;;;;3.27;0.87;;;14.30;59.90;;;;;;5008578;28;20946;-73
2024/04/02 12:28:11;;;;;;;2.23;0.80;;;14.60;59.50;;;;;;5019950;28;20186;-72
2024/04/02 12:30:36;;;;;;;0.97;0.60;;;14.50;58.70;;;;;;5011430;28;20195;-73
2024/04/02 12:33:02;;;;;;;1.63;1.00;;;14.30;58.40;;;;;;5014071;28;20187;-74
2024/04/02 12:35:28;;;;;;;4.60;1.30;;;14.20;59.20;;;;;;5015207;28;20217;-73
2024/04/02 12:37:54;;;;;;;4.03;0.90;;;14.20;59.70;;;;;;5004247;28;20218;-72
2024/04/02 12:40:20;;;;;;;2.37;0.73;;;14.00;59.30;;;;;;5009010;28;20926;-74
2024/04/02 12:42:45;;;;;;;3.30;0.90;;;13.50;60.60;;;;;;5001215;28;20532;-73
2024/04/02 12:45:11;;;;;;;4.87;1.37;;;13.30;62.50;;;;;;5008385;28;20186;-74
2024/04/02 12:47:37;;;;;;;1.63;0.70;;;13.00;64.70;;;;;;5009088;28;20198;-74
2024/04/02 12:50:03;;;;;;;3.53;1.00;;;12.60;66.30;;;;;;5008068;28;20666;-74
2024/04/02 12:52:30;;;;;;;1.47;0.90;;;12.50;67.20;;;;;;4997693;28;20476;-74
2024/04/02 12:54:56;;;;;;;2.07;1.07;;;12.80;68.00;;;;;;5008813;28;20190;-73